Time;durP1;ratioP1;P1;durP2;ratioP2;P2;SDS_P1;SDS_P2;PMS_P1;PMS_P2;Temp;Humidity;BMP_temperature;BMP_pressure;BME280_temperature;BME280_humidity;BME280_pressure;Samples;Min_cycle;Max_cycle;Signal;HPM_P1;HPM_P2
2023/07/12 00:00:25;;;;;;;2.10;2.10;;;24.80;70.60;;;;;;5082378;28;43387;-71
2023/07/12 00:02:55;;;;;;;2.30;2.30;;;24.80;70.80;;;;;;5081934;28;44007;-71
2023/07/12 00:05:27;;;;;;;2.25;2.25;;;24.80;71.40;;;;;;5056492;28;45657;-71
2023/07/12 00:07:55;;;;;;;2.00;2.00;;;24.80;71.20;;;;;;5066768;28;43435;-71
2023/07/12 00:10:24;;;;;;;2.03;2.00;;;24.70;71.10;;;;;;5079771;28;43371;-72
2023/07/12 00:12:53;;;;;;;1.90;1.90;;;24.70;70.90;;;;;;5049111;28;43463;-71
2023/07/12 00:15:22;;;;;;;2.05;2.05;;;24.70;71.50;;;;;;5058845;28;44633;-71
2023/07/12 00:17:50;;;;;;;2.22;2.22;;;24.70;71.70;;;;;;5066863;28;43397;-71
2023/07/12 00:20:22;;;;;;;2.20;2.20;;;24.80;71.60;;;;;;5077734;28;43491;-71
2023/07/12 00:22:51;;;;;;;2.08;2.08;;;24.90;71.20;;;;;;5063218;28;44058;-70
2023/07/12 00:25:20;;;;;;;1.75;1.70;;;25.10;70.90;;;;;;5061617;28;45774;-71
2023/07/12 00:27:48;;;;;;;1.90;1.90;;;25.10;70.40;;;;;;5060751;28;44864;-71
2023/07/12 00:30:21;;;;;;;2.15;2.15;;;25.10;70.10;;;;;;5063684;28;43409;-71
2023/07/12 00:32:49;;;;;;;2.10;2.10;;;25.00;70.40;;;;;;5059993;28;44138;-71
2023/07/12 00:35:20;;;;;;;2.05;2.05;;;25.00;70.80;;;;;;5058081;28;45670;-72
2023/07/12 00:37:49;;;;;;;2.00;2.00;;;25.00;70.40;;;;;;5074453;28;43911;-71
2023/07/12 00:40:38;;;;;;;1.92;1.92;;;24.90;70.40;;;;;;5084566;28;44031;-72
2023/07/12 00:43:12;;;;;;;1.95;1.95;;;24.90;71.60;;;;;;5076460;28;43464;-71
2023/07/12 00:45:40;;;;;;;1.85;1.85;;;24.80;71.20;;;;;;5086156;28;43615;-69
2023/07/12 00:48:11;;;;;;;2.08;2.08;;;24.80;70.70;;;;;;5067815;28;44730;-72
2023/07/12 00:50:41;;;;;;;1.90;1.90;;;24.80;70.80;;;;;;5081699;28;43849;-78
2023/07/12 00:53:15;;;;;;;2.13;2.13;;;24.80;70.90;;;;;;5063672;28;43483;-71
2023/07/12 00:55:59;;;;;;;1.90;1.90;;;24.70;71.50;;;;;;5061250;28;46163;-72
2023/07/12 00:58:29;;;;;;;2.00;2.00;;;24.80;71.70;;;;;;5065885;28;43352;-70
2023/07/12 01:00:57;;;;;;;1.95;1.95;;;24.80;71.40;;;;;;5059667;28;43464;-70
2023/07/12 01:03:25;;;;;;;1.95;1.95;;;24.90;71.00;;;;;;5054372;28;43471;-71
2023/07/12 01:05:55;;;;;;;2.03;2.03;;;24.90;70.80;;;;;;5053030;28;45798;-70
2023/07/12 01:08:23;;;;;;;2.10;2.10;;;24.90;70.80;;;;;;5061905;28;43672;-71
2023/07/12 01:10:51;;;;;;;2.00;2.00;;;24.90;71.30;;;;;;5064207;28;43482;-70
2023/07/12 01:13:21;;;;;;;2.13;2.13;;;24.90;70.90;;;;;;5075653;28;43463;-70
2023/07/12 01:15:49;;;;;;;2.10;2.10;;;24.80;70.70;;;;;;5067110;28;43631;-70
2023/07/12 01:18:17;;;;;;;1.80;1.80;;;24.80;70.60;;;;;;5072925;28;43434;-71
2023/07/12 01:20:46;;;;;;;2.03;2.03;;;24.80;71.40;;;;;;5066449;28;43392;-70
2023/07/12 01:23:15;;;;;;;1.98;1.98;;;24.80;71.20;;;;;;5062542;28;43600;-70
2023/07/12 01:25:44;;;;;;;1.80;1.80;;;24.80;71.00;;;;;;5058649;28;45818;-70
2023/07/12 01:28:13;;;;;;;1.85;1.85;;;24.70;70.90;;;;;;5060769;28;44876;-69
2023/07/12 01:30:42;;;;;;;1.73;1.73;;;24.70;71.40;;;;;;5088184;28;43427;-70
2023/07/12 01:33:13;;;;;;;1.80;1.80;;;24.70;71.80;;;;;;5078899;28;43487;-70
2023/07/12 01:35:41;;;;;;;2.03;2.03;;;24.80;71.60;;;;;;5067359;28;45779;-70
2023/07/12 01:38:09;;;;;;;2.00;2.00;;;24.90;71.30;;;;;;5076984;28;43467;-71
2023/07/12 01:40:39;;;;;;;2.10;2.10;;;25.00;70.80;;;;;;5081968;28;43558;-71
2023/07/12 01:43:07;;;;;;;1.98;1.98;;;25.10;70.50;;;;;;5063901;28;43618;-74
2023/07/12 01:45:35;;;;;;;2.03;2.03;;;25.00;70.30;;;;;;5086540;28;43733;-72
2023/07/12 01:48:04;;;;;;;1.85;1.85;;;25.00;70.40;;;;;;5083616;28;43412;-72
2023/07/12 01:50:34;;;;;;;2.05;2.05;;;24.90;70.90;;;;;;5060233;28;43361;-72
2023/07/12 01:53:02;;;;;;;2.30;2.20;;;24.90;70.60;;;;;;5055866;28;43383;-72
2023/07/12 01:55:30;;;;;;;1.88;1.80;;;24.90;70.50;;;;;;5061852;28;45727;-71
2023/07/12 01:57:59;;;;;;;1.80;1.80;;;24.80;70.90;;;;;;5082123;28;43490;-71
2023/07/12 02:00:27;;;;;;;1.80;1.80;;;24.80;71.40;;;;;;5063539;28;43433;-76
2023/07/12 02:02:55;;;;;;;1.80;1.80;;;24.80;71.10;;;;;;5064860;28;43941;-71
2023/07/12 02:05:24;;;;;;;1.90;1.90;;;24.80;71.00;;;;;;5079195;28;43852;-72
2023/07/12 02:07:52;;;;;;;1.88;1.88;;;24.70;70.90;;;;;;5078718;28;43393;-71
2023/07/12 02:10:21;;;;;;;1.85;1.85;;;24.70;71.60;;;;;;5084472;28;43439;-71
2023/07/12 02:12:49;;;;;;;1.70;1.70;;;24.70;71.70;;;;;;5067703;28;43552;-70
2023/07/12 02:15:18;;;;;;;1.88;1.88;;;24.80;71.60;;;;;;5087115;28;43772;-70
2023/07/12 02:17:47;;;;;;;2.00;2.00;;;24.90;71.20;;;;;;5065000;28;44720;-71
2023/07/12 02:20:15;;;;;;;1.88;1.88;;;25.00;70.90;;;;;;5064533;28;43458;-71
2023/07/12 02:22:46;;;;;;;1.80;1.80;;;25.00;70.40;;;;;;5083327;28;43448;-71
2023/07/12 02:25:17;;;;;;;1.80;1.80;;;25.00;70.40;;;;;;5069637;28;45932;-72
2023/07/12 02:27:45;;;;;;;2.00;2.00;;;24.90;70.60;;;;;;5067492;28;44511;-71
2023/07/12 02:30:16;;;;;;;1.80;1.80;;;24.80;71.10;;;;;;5086571;28;43368;-71
2023/07/12 02:32:45;;;;;;;1.83;1.83;;;24.80;70.80;;;;;;5087375;28;43325;-70
2023/07/12 02:35:13;;;;;;;2.00;2.00;;;24.80;70.80;;;;;;5060084;28;43663;-71
2023/07/12 02:37:41;;;;;;;1.92;1.92;;;24.80;71.10;;;;;;5071588;28;43406;-70
2023/07/12 02:40:10;;;;;;;1.80;1.80;;;24.70;71.60;;;;;;5087274;28;43390;-70
2023/07/12 02:42:38;;;;;;;2.00;2.00;;;24.80;71.70;;;;;;5085436;28;43364;-72
2023/07/12 02:45:07;;;;;;;1.95;1.95;;;24.90;71.40;;;;;;5063083;28;43594;-70
2023/07/12 02:47:35;;;;;;;1.70;1.70;;;25.00;71.00;;;;;;5073773;28;43417;-71
2023/07/12 02:50:05;;;;;;;1.80;1.80;;;25.00;70.60;;;;;;5061880;28;43295;-71
2023/07/12 02:52:34;;;;;;;1.70;1.70;;;25.00;70.30;;;;;;5084034;27;43422;-70
2023/07/12 02:55:03;;;;;;;1.83;1.83;;;25.00;70.30;;;;;;5057085;28;45601;-71
2023/07/12 02:57:31;;;;;;;2.00;1.90;;;24.90;70.90;;;;;;5086734;28;43353;-70
2023/07/12 02:59:59;;;;;;;1.65;1.65;;;24.90;71.00;;;;;;5077867;28;43448;-70
2023/07/12 03:02:30;;;;;;;1.90;1.90;;;24.80;70.70;;;;;;5079052;28;43436;-69
2023/07/12 03:04:58;;;;;;;1.70;1.70;;;24.80;70.70;;;;;;5063208;28;45415;-71
2023/07/12 03:07:28;;;;;;;1.48;1.48;;;24.70;71.30;;;;;;5080295;28;43499;-75
2023/07/12 03:09:57;;;;;;;1.73;1.73;;;24.70;71.50;;;;;;5077337;28;43444;-71
2023/07/12 03:12:25;;;;;;;1.90;1.90;;;24.70;71.20;;;;;;5082079;28;43420;-70
2023/07/12 03:14:53;;;;;;;2.13;2.03;;;24.70;71.10;;;;;;5077988;28;43908;-70
2023/07/12 03:17:21;;;;;;;1.80;1.80;;;24.70;71.70;;;;;;5070715;28;43356;-69
2023/07/12 03:19:49;;;;;;;1.65;1.65;;;24.70;71.90;;;;;;5062493;28;43481;-70
2023/07/12 03:22:17;;;;;;;1.83;1.83;;;24.70;71.40;;;;;;5044929;28;43502;-70
2023/07/12 03:24:46;;;;;;;1.80;1.80;;;24.70;71.20;;;;;;5077492;28;43953;-70
2023/07/12 03:27:16;;;;;;;1.70;1.70;;;24.60;71.50;;;;;;5064622;28;44739;-70
2023/07/12 03:29:44;;;;;;;1.95;1.95;;;24.60;72.10;;;;;;5066315;28;43893;-71
2023/07/12 03:32:12;;;;;;;1.90;1.90;;;24.70;72.00;;;;;;5059978;28;43372;-70
2023/07/12 03:34:40;;;;;;;2.00;2.00;;;24.80;71.70;;;;;;5063621;28;45896;-70
2023/07/12 03:37:08;;;;;;;1.90;1.90;;;24.90;71.30;;;;;;5074847;28;43489;-72
2023/07/12 03:39:36;;;;;;;1.50;1.50;;;25.00;70.90;;;;;;5085845;28;43742;-69
2023/07/12 03:42:06;;;;;;;1.63;1.63;;;25.00;70.50;;;;;;5075239;28;44069;-69
2023/07/12 03:44:34;;;;;;;1.80;1.80;;;25.00;70.40;;;;;;5077314;28;43878;-71
2023/07/12 03:47:02;;;;;;;1.80;1.80;;;25.00;70.80;;;;;;5077552;28;43408;-71
2023/07/12 03:49:30;;;;;;;2.10;2.10;;;24.90;71.00;;;;;;5081544;28;43955;-71
2023/07/12 03:52:02;;;;;;;1.73;1.73;;;24.90;70.90;;;;;;5067937;28;43508;-70
2023/07/12 03:54:30;;;;;;;1.80;1.80;;;24.90;70.90;;;;;;5066752;28;43614;-71
2023/07/12 03:56:58;;;;;;;1.90;1.90;;;24.80;71.30;;;;;;5074636;28;43486;-70
2023/07/12 03:59:27;;;;;;;1.60;1.60;;;24.80;71.50;;;;;;5067260;28;43413;-70
2023/07/12 04:01:55;;;;;;;1.70;1.70;;;24.80;71.40;;;;;;5066559;28;43473;-71
2023/07/12 04:04:23;;;;;;;2.10;2.00;;;24.70;71.20;;;;;;5053099;28;46508;-70
2023/07/12 04:06:51;;;;;;;1.67;1.67;;;24.70;71.60;;;;;;5069271;28;43416;-73
2023/07/12 04:09:19;;;;;;;2.00;1.90;;;24.70;72.00;;;;;;5085274;28;43744;-70
2023/07/12 04:11:47;;;;;;;2.22;2.03;;;24.70;71.90;;;;;;5083141;28;43549;-70
2023/07/12 04:14:15;;;;;;;5.07;1.98;;;24.80;71.50;;;;;;5081736;28;43991;-70
2023/07/12 04:16:47;;;;;;;1.55;1.55;;;25.00;71.20;;;;;;5067520;28;44710;-70
2023/07/12 04:19:15;;;;;;;1.90;1.90;;;25.00;70.90;;;;;;5070884;28;43415;-71
2023/07/12 04:21:43;;;;;;;1.75;1.75;;;25.00;70.70;;;;;;5071203;28;43455;-70
2023/07/12 04:24:11;;;;;;;1.63;1.63;;;24.90;70.70;;;;;;5061303;28;46011;-70
2023/07/12 04:26:39;;;;;;;2.03;2.00;;;24.90;71.30;;;;;;5078246;28;43539;-71
2023/07/12 04:29:07;;;;;;;1.83;1.83;;;24.80;71.30;;;;;;5085762;28;43432;-71
2023/07/12 04:31:35;;;;;;;1.70;1.70;;;24.80;71.40;;;;;;5085693;28;43402;-70
2023/07/12 04:34:04;;;;;;;1.95;1.95;;;24.80;71.40;;;;;;5086184;28;43797;-70
2023/07/12 04:36:33;;;;;;;2.05;1.95;;;24.70;71.70;;;;;;5059101;28;45078;-71
2023/07/12 04:39:01;;;;;;;1.88;1.80;;;24.70;71.80;;;;;;5071827;28;43550;-70
2023/07/12 04:41:29;;;;;;;1.80;1.70;;;24.80;71.70;;;;;;5085441;28;43420;-71
2023/07/12 04:43:57;;;;;;;1.73;1.63;;;24.90;71.40;;;;;;5089314;28;43846;-72
2023/07/12 04:46:25;;;;;;;1.85;1.85;;;25.00;70.90;;;;;;5062721;28;43455;-71
2023/07/12 04:48:53;;;;;;;2.15;2.05;;;25.00;70.80;;;;;;5070500;28;43516;-71
2023/07/12 04:51:25;;;;;;;5.05;4.47;;;25.00;70.90;;;;;;5079860;28;43961;-71
2023/07/12 04:53:52;;;;;;;5.03;4.20;;;24.90;71.10;;;;;;5056713;28;45675;-72
2023/07/12 04:56:20;;;;;;;4.68;4.38;;;24.80;71.30;;;;;;5069937;28;43452;-71
2023/07/12 04:58:48;;;;;;;4.30;4.00;;;24.80;71.30;;;;;;5077633;28;43423;-72
2023/07/12 05:01:18;;;;;;;4.15;3.85;;;24.70;71.30;;;;;;5057718;28;43480;-71
2023/07/12 05:03:46;;;;;;;3.53;3.22;;;24.70;71.70;;;;;;5066518;28;43663;-72
2023/07/12 05:06:15;;;;;;;4.03;3.67;;;24.70;71.90;;;;;;5063408;28;44743;-71
2023/07/12 05:08:52;;;;;;;3.78;3.53;;;24.70;71.90;;;;;;5068799;28;43486;-72
2023/07/12 05:11:20;;;;;;;3.38;3.28;;;24.70;71.90;;;;;;5070500;28;43431;-71
2023/07/12 05:13:48;;;;;;;2.92;2.75;;;24.70;71.90;;;;;;5045028;28;46060;-71
2023/07/12 05:16:16;;;;;;;2.90;2.80;;;24.60;72.20;;;;;;5064619;28;43449;-71
2023/07/12 05:18:44;;;;;;;3.10;2.90;;;24.70;72.20;;;;;;5068041;28;44021;-72
2023/07/12 05:21:12;;;;;;;3.92;3.00;;;24.80;72.00;;;;;;5075617;28;43460;-71
2023/07/12 05:23:41;;;;;;;2.58;2.47;;;24.90;71.60;;;;;;5068267;28;43897;-71
2023/07/12 05:26:11;;;;;;;2.50;2.50;;;25.00;71.10;;;;;;5069280;28;43467;-71
2023/07/12 05:28:39;;;;;;;2.72;2.63;;;25.00;70.80;;;;;;5059541;28;43440;-71
2023/07/12 05:31:07;;;;;;;2.67;2.67;;;25.00;70.90;;;;;;5067312;28;43850;-71
2023/07/12 05:33:36;;;;;;;2.80;2.60;;;24.90;71.20;;;;;;5087000;28;43753;-71
2023/07/12 05:36:06;;;;;;;2.38;2.38;;;24.90;71.30;;;;;;5069252;28;43417;-71
2023/07/12 05:38:34;;;;;;;2.90;2.40;;;24.80;71.20;;;;;;5057688;28;43487;-71
2023/07/12 05:41:02;;;;;;;2.70;2.60;;;24.80;71.30;;;;;;5067619;28;43396;-72
2023/07/12 05:43:33;;;;;;;2.10;2.10;;;24.70;71.70;;;;;;5052779;28;45739;-71
2023/07/12 05:46:03;;;;;;;2.63;2.53;;;24.70;71.70;;;;;;5069716;28;43446;-72
2023/07/12 05:48:30;;;;;;;2.40;2.40;;;24.70;71.80;;;;;;5079768;28;43977;-71
2023/07/12 05:50:59;;;;;;;2.60;2.50;;;24.70;71.70;;;;;;5051829;28;43972;-72
2023/07/12 05:53:27;;;;;;;2.55;2.45;;;24.70;72.10;;;;;;5070926;28;43560;-71
2023/07/12 05:55:55;;;;;;;2.63;2.53;;;24.60;72.20;;;;;;5069034;28;43376;-71
2023/07/12 05:58:23;;;;;;;2.28;2.22;;;24.70;71.90;;;;;;5046111;28;43428;-71
2023/07/12 06:00:58;;;;;;;2.35;2.35;;;24.80;71.60;;;;;;5048743;28;43562;-71
2023/07/12 06:03:26;;;;;;;2.63;2.53;;;24.90;71.90;;;;;;5085754;28;43605;-71
2023/07/12 06:05:54;;;;;;;2.47;2.38;;;25.00;71.00;;;;;;5061903;28;44653;-72
2023/07/12 06:08:22;;;;;;;2.47;2.38;;;25.00;70.90;;;;;;5065428;28;43519;-71
2023/07/12 06:10:50;;;;;;;2.42;2.42;;;24.90;70.90;;;;;;5087054;28;43471;-71
2023/07/12 06:13:18;;;;;;;2.50;2.40;;;24.80;71.40;;;;;;5062474;28;45526;-72
2023/07/12 06:15:46;;;;;;;2.42;2.42;;;24.80;71.40;;;;;;5073035;28;43422;-71
2023/07/12 06:18:15;;;;;;;2.40;2.30;;;24.80;71.30;;;;;;5083785;28;44295;-71
2023/07/12 06:20:44;;;;;;;2.63;2.53;;;24.70;71.20;;;;;;5073895;28;43534;-71
2023/07/12 06:23:12;;;;;;;2.60;2.42;;;24.70;71.80;;;;;;5059716;28;44457;-75
2023/07/12 06:25:40;;;;;;;2.20;2.20;;;24.70;71.90;;;;;;5043623;28;45017;-71
2023/07/12 06:28:08;;;;;;;2.20;2.20;;;24.70;71.80;;;;;;5082504;28;43449;-71
2023/07/12 06:30:36;;;;;;;2.50;2.50;;;24.70;71.70;;;;;;5068694;28;43360;-71
2023/07/12 06:33:04;;;;;;;2.55;2.47;;;24.60;71.90;;;;;;5061454;28;43859;-71
2023/07/12 06:35:34;;;;;;;2.80;2.70;;;24.60;72.30;;;;;;5072755;28;44019;-71
2023/07/12 06:38:02;;;;;;;2.60;2.60;;;24.60;72.10;;;;;;5056185;28;43364;-71
2023/07/12 06:40:30;;;;;;;2.58;2.47;;;24.70;71.80;;;;;;5079565;28;43438;-71
2023/07/12 06:42:58;;;;;;;2.65;2.65;;;24.80;72.10;;;;;;5068961;28;44127;-71
2023/07/12 06:45:26;;;;;;;2.70;2.60;;;24.90;71.10;;;;;;5065991;28;45015;-71
2023/07/12 06:47:54;;;;;;;2.63;2.63;;;24.90;71.10;;;;;;5077732;28;44005;-71
2023/07/12 06:50:22;;;;;;;2.70;2.60;;;24.80;70.90;;;;;;5087405;28;43411;-71
2023/07/12 06:52:51;;;;;;;2.67;2.65;;;24.80;71.50;;;;;;5063303;28;45752;-71
2023/07/12 06:55:19;;;;;;;2.70;2.67;;;24.70;71.60;;;;;;5064785;28;45097;-71
2023/07/12 06:57:47;;;;;;;2.88;2.78;;;24.70;71.50;;;;;;5069055;28;43499;-72
2023/07/12 07:00:16;;;;;;;3.00;2.90;;;24.70;71.50;;;;;;5069964;28;43292;-71
2023/07/12 07:02:44;;;;;;;2.97;2.97;;;24.60;71.90;;;;;;5064370;28;45744;-71
2023/07/12 07:05:12;;;;;;;2.60;2.60;;;24.60;72.10;;;;;;5061544;28;44972;-72
2023/07/12 07:07:40;;;;;;;3.03;2.92;;;24.60;71.90;;;;;;5068706;28;43384;-71
2023/07/12 07:10:10;;;;;;;2.80;2.80;;;24.60;71.90;;;;;;5081179;28;43950;-71
2023/07/12 07:12:38;;;;;;;3.30;3.20;;;24.50;72.30;;;;;;5079957;28;43819;-71
2023/07/12 07:15:07;;;;;;;3.05;3.00;;;24.50;72.40;;;;;;5063972;28;43421;-71
2023/07/12 07:17:35;;;;;;;3.00;2.90;;;24.60;72.20;;;;;;5086198;28;43483;-71
2023/07/12 07:20:04;;;;;;;2.88;2.78;;;24.70;71.80;;;;;;5082391;28;44424;-71
2023/07/12 07:22:32;;;;;;;3.03;3.00;;;24.80;71.40;;;;;;5081842;28;43651;-71
2023/07/12 07:25:00;;;;;;;3.00;2.80;;;24.90;71.20;;;;;;5065545;28;43500;-76
2023/07/12 07:27:41;;;;;;;3.50;3.40;;;24.90;71.10;;;;;;5042442;28;43428;-71
2023/07/12 07:30:11;;;;;;;3.38;3.28;;;24.80;71.00;;;;;;5080125;28;43360;-76
2023/07/12 07:32:39;;;;;;;3.47;3.38;;;24.80;71.60;;;;;;5082261;28;43866;-72
2023/07/12 07:35:07;;;;;;;3.25;3.15;;;24.70;71.60;;;;;;5085809;28;43950;-71
2023/07/12 07:37:36;;;;;;;3.15;2.90;;;24.70;71.50;;;;;;5084774;28;43483;-72
2023/07/12 07:40:07;;;;;;;3.20;3.10;;;24.70;71.50;;;;;;5088760;28;43429;-72
2023/07/12 07:42:35;;;;;;;3.20;3.10;;;24.60;72.00;;;;;;5076226;28;43611;-71
2023/07/12 07:45:04;;;;;;;3.30;3.20;;;24.60;72.00;;;;;;5087725;28;43364;-71
2023/07/12 07:47:33;;;;;;;3.10;3.08;;;24.60;71.90;;;;;;5089559;28;43483;-71
2023/07/12 07:50:01;;;;;;;3.58;3.47;;;24.60;71.90;;;;;;5085825;28;43504;-71
2023/07/12 07:52:29;;;;;;;3.50;3.40;;;24.50;72.30;;;;;;5079720;28;43595;-71
2023/07/12 07:54:57;;;;;;;3.42;3.33;;;24.50;72.40;;;;;;5081997;28;44013;-72
2023/07/12 07:57:25;;;;;;;3.42;3.33;;;24.60;72.20;;;;;;5073114;28;44035;-71
2023/07/12 07:59:53;;;;;;;3.10;3.10;;;24.70;71.90;;;;;;5070125;28;43426;-71
2023/07/12 08:02:22;;;;;;;3.35;3.25;;;24.80;71.40;;;;;;5083674;28;44793;-71
2023/07/12 08:04:52;;;;;;;3.72;3.53;;;24.80;71.20;;;;;;5072803;28;43536;-72
2023/07/12 08:07:20;;;;;;;3.70;3.50;;;24.80;71.10;;;;;;5063300;28;43378;-71
2023/07/12 08:09:48;;;;;;;3.40;3.30;;;24.80;71.30;;;;;;5063189;28;43591;-71
2023/07/12 08:12:16;;;;;;;3.20;3.20;;;24.70;71.70;;;;;;5070584;28;44961;-72
2023/07/12 08:14:45;;;;;;;3.70;3.60;;;24.70;71.70;;;;;;5065222;28;43356;-71
2023/07/12 08:17:13;;;;;;;3.17;3.08;;;24.70;71.50;;;;;;5072178;28;43337;-72
2023/07/12 08:19:42;;;;;;;3.22;3.13;;;24.60;71.60;;;;;;5085697;28;43468;-72
2023/07/12 08:22:10;;;;;;;3.30;3.20;;;24.60;72.10;;;;;;5088364;28;43681;-72
2023/07/12 08:24:38;;;;;;;3.23;3.20;;;24.50;72.30;;;;;;5080516;28;43943;-72
2023/07/12 08:27:09;;;;;;;2.80;2.75;;;24.50;72.00;;;;;;5067946;28;43486;-70
2023/07/12 08:29:37;;;;;;;3.58;3.40;;;24.50;72.00;;;;;;5066070;28;44209;-72
2023/07/12 08:32:06;;;;;;;3.13;3.13;;;24.50;72.40;;;;;;5076672;28;43595;-71
2023/07/12 08:34:34;;;;;;;3.17;3.08;;;24.50;72.60;;;;;;5067235;28;43392;-77
2023/07/12 08:37:04;;;;;;;3.00;3.00;;;24.60;72.40;;;;;;5076381;28;43408;-72
2023/07/12 08:39:32;;;;;;;3.35;3.20;;;24.70;72.00;;;;;;5071305;28;43466;-71
2023/07/12 08:42:00;;;;;;;2.87;2.87;;;24.80;71.50;;;;;;5089519;28;43684;-72
2023/07/12 08:44:28;;;;;;;3.10;3.00;;;24.80;71.20;;;;;;5087837;28;43338;-70
2023/07/12 08:46:57;;;;;;;2.70;2.70;;;24.80;71.20;;;;;;5069795;28;43442;-71
2023/07/12 08:49:25;;;;;;;3.00;3.00;;;24.70;71.20;;;;;;5069653;28;43403;-71
2023/07/12 08:51:56;;;;;;;2.95;2.75;;;24.70;71.80;;;;;;5072191;28;45836;-71
2023/07/12 08:54:27;;;;;;;2.83;2.83;;;24.70;71.70;;;;;;5072472;28;43467;-72
2023/07/12 08:57:20;;;;;;;3.03;2.93;;;24.60;71.70;;;;;;5070348;28;43830;-71
2023/07/12 09:00:03;;;;;;;3.00;2.90;;;24.60;71.90;;;;;;5063165;28;43433;-72
2023/07/12 09:02:31;;;;;;;3.05;2.95;;;24.50;72.30;;;;;;5073341;28;44529;-71
2023/07/12 09:05:00;;;;;;;2.72;2.72;;;24.50;72.30;;;;;;5079755;28;43443;-71
2023/07/12 09:07:29;;;;;;;3.03;3.00;;;24.60;72.00;;;;;;5077605;28;43430;-71
2023/07/12 09:09:59;;;;;;;2.77;2.77;;;24.60;71.80;;;;;;5059483;28;43459;-72
2023/07/12 09:12:28;;;;;;;2.83;2.72;;;24.60;71.80;;;;;;5080567;28;43564;-72
2023/07/12 09:14:58;;;;;;;2.63;2.58;;;24.60;72.20;;;;;;5076807;28;43497;-71
2023/07/12 09:17:28;;;;;;;2.75;2.70;;;24.60;72.10;;;;;;5086122;28;43468;-71
2023/07/12 09:19:57;;;;;;;2.65;2.65;;;24.60;71.90;;;;;;5079952;28;43473;-71
2023/07/12 09:22:25;;;;;;;2.90;2.80;;;24.50;71.90;;;;;;5083511;28;43733;-71
2023/07/12 09:24:53;;;;;;;2.88;2.67;;;24.50;72.30;;;;;;5084518;28;43499;-71
2023/07/12 09:27:24;;;;;;;2.80;2.80;;;24.50;72.40;;;;;;5072103;28;43373;-71
2023/07/12 09:30:01;;;;;;;2.70;2.70;;;24.60;72.20;;;;;;5070415;28;43362;-70
2023/07/12 09:32:31;;;;;;;2.67;2.67;;;24.60;72.00;;;;;;5084272;28;43858;-70
2023/07/12 09:34:59;;;;;;;2.55;2.55;;;24.60;71.90;;;;;;5076003;28;43949;-70
2023/07/12 09:37:28;;;;;;;2.38;2.38;;;24.60;71.70;;;;;;5066230;28;43387;-70
2023/07/12 09:39:56;;;;;;;2.53;2.53;;;24.60;72.20;;;;;;5082623;28;43388;-70
2023/07/12 09:42:26;;;;;;;2.60;2.55;;;24.60;72.20;;;;;;5065511;28;45759;-71
2023/07/12 09:44:54;;;;;;;2.35;2.30;;;24.60;72.20;;;;;;5061107;28;43514;-70
2023/07/12 09:47:34;;;;;;;2.10;2.10;;;24.50;72.00;;;;;;5061132;28;43333;-70
2023/07/12 09:50:06;;;;;;;2.20;2.20;;;24.50;72.30;;;;;;5037340;28;43413;-70
2023/07/12 09:52:40;;;;;;;2.20;2.20;;;24.50;72.40;;;;;;5077802;28;44175;-70
2023/07/12 09:55:12;;;;;;;2.33;2.33;;;24.60;72.30;;;;;;5072352;28;43489;-70
2023/07/12 09:57:46;;;;;;;2.20;2.20;;;24.70;71.90;;;;;;5046729;28;43446;-70
2023/07/12 10:00:19;;;;;;;2.30;2.30;;;24.70;71.40;;;;;;5060259;28;43379;-70
2023/07/12 10:03:00;;;;;;;2.30;2.30;;;24.70;71.40;;;;;;5049618;28;45763;-70
2023/07/12 10:05:28;;;;;;;2.33;2.33;;;24.70;71.50;;;;;;5078235;28;43417;-71
2023/07/12 10:07:58;;;;;;;2.22;2.22;;;24.60;71.60;;;;;;5064267;28;43994;-71
2023/07/12 10:10:30;;;;;;;2.10;2.10;;;24.60;72.00;;;;;;5083558;28;43359;-71
2023/07/12 10:13:07;;;;;;;2.47;2.47;;;24.60;72.00;;;;;;5054387;28;45710;-71
2023/07/12 10:15:37;;;;;;;2.15;2.15;;;24.50;71.70;;;;;;5065971;28;44932;-72
2023/07/12 10:18:05;;;;;;;2.20;2.20;;;24.50;71.70;;;;;;5074779;28;43385;-71
2023/07/12 10:20:33;;;;;;;2.00;2.00;;;24.50;72.40;;;;;;5070124;28;43435;-72
2023/07/12 10:23:01;;;;;;;2.20;2.20;;;24.50;72.40;;;;;;5044840;28;46291;-72
2023/07/12 10:25:34;;;;;;;2.00;2.00;;;24.50;72.30;;;;;;5060747;28;43408;-71
2023/07/12 10:28:07;;;;;;;2.10;2.10;;;24.40;72.00;;;;;;5076680;28;43459;-71
2023/07/12 10:30:35;;;;;;;2.13;2.13;;;24.40;72.60;;;;;;5075709;28;43446;-71
2023/07/12 10:33:04;;;;;;;2.05;2.05;;;24.40;72.50;;;;;;5062653;28;45425;-73
2023/07/12 10:35:39;;;;;;;2.00;2.00;;;24.50;72.30;;;;;;5083074;28;43702;-71
2023/07/12 10:38:12;;;;;;;2.30;2.30;;;24.60;71.90;;;;;;5071870;28;43308;-70
2023/07/12 10:40:44;;;;;;;2.13;2.13;;;24.70;71.60;;;;;;5070533;28;43485;-71
2023/07/12 10:43:16;;;;;;;2.07;2.07;;;24.70;71.30;;;;;;5067413;28;43749;-70
2023/07/12 10:45:44;;;;;;;2.10;2.10;;;24.70;71.30;;;;;;5073070;28;43554;-71
2023/07/12 10:48:17;;;;;;;1.90;1.90;;;24.70;71.70;;;;;;5064892;28;43431;-71
2023/07/12 10:50:47;;;;;;;2.00;2.00;;;24.60;71.70;;;;;;5069373;28;43441;-70
2023/07/12 10:53:17;;;;;;;2.28;2.28;;;24.60;71.80;;;;;;5081297;28;43611;-70
2023/07/12 10:56:13;;;;;;;2.20;2.20;;;24.60;71.40;;;;;;5073916;28;43961;-70
2023/07/12 10:58:55;;;;;;;1.92;1.92;;;24.50;72.00;;;;;;5079493;28;43380;-70
2023/07/12 11:01:40;;;;;;;1.77;1.77;;;24.50;72.30;;;;;;5071752;28;43514;-75
2023/07/12 11:04:09;;;;;;;1.70;1.70;;;24.50;72.20;;;;;;5067878;28;43684;-71
2023/07/12 11:06:37;;;;;;;2.08;2.05;;;24.40;71.90;;;;;;5076076;28;43933;-70
2023/07/12 11:09:08;;;;;;;1.85;1.85;;;24.40;72.20;;;;;;5077120;28;44011;-73
2023/07/12 11:11:49;;;;;;;1.73;1.73;;;24.40;72.40;;;;;;5065533;28;43416;-71
2023/07/12 11:14:21;;;;;;;1.80;1.80;;;24.50;72.40;;;;;;5061941;28;45989;-71
2023/07/12 11:16:53;;;;;;;1.85;1.85;;;24.60;72.10;;;;;;5079678;28;43438;-71
2023/07/12 11:19:44;;;;;;;1.63;1.63;;;24.70;71.60;;;;;;5081843;28;43520;-69
2023/07/12 11:22:13;;;;;;;2.05;2.00;;;24.70;71.20;;;;;;5054460;28;43820;-71
2023/07/12 11:24:49;;;;;;;2.03;2.03;;;24.70;71.20;;;;;;5078173;28;43564;-72
2023/07/12 11:27:32;;;;;;;1.80;1.80;;;24.70;71.30;;;;;;5058187;28;43440;-71
2023/07/12 11:30:15;;;;;;;1.75;1.75;;;24.60;71.70;;;;;;5067321;28;43388;-70
2023/07/12 11:32:43;;;;;;;1.85;1.85;;;24.60;72.50;;;;;;5064603;28;43587;-71
2023/07/12 11:35:15;;;;;;;1.88;1.88;;;24.60;71.80;;;;;;5078768;28;43580;-71
2023/07/12 11:37:45;;;;;;;1.77;1.77;;;24.50;71.70;;;;;;5078549;28;43412;-70
2023/07/12 11:40:18;;;;;;;1.70;1.70;;;24.50;72.20;;;;;;5078029;28;43399;-70
2023/07/12 11:42:46;;;;;;;1.83;1.80;;;24.50;72.20;;;;;;5080289;28;43426;-71
2023/07/12 11:45:17;;;;;;;1.77;1.77;;;24.50;72.10;;;;;;5074104;28;43923;-70
2023/07/12 11:47:46;;;;;;;1.88;1.88;;;24.40;72.00;;;;;;5083148;28;43602;-74
2023/07/12 11:50:19;;;;;;;1.60;1.60;;;24.40;72.50;;;;;;5063561;28;43464;-71
2023/07/12 11:52:47;;;;;;;2.03;1.90;;;24.40;72.50;;;;;;5061022;28;43459;-70
2023/07/12 11:55:16;;;;;;;1.95;1.88;;;24.40;72.40;;;;;;5061551;28;43971;-71
2023/07/12 11:57:45;;;;;;;2.38;2.10;;;24.40;72.20;;;;;;5056988;28;44969;-71
2023/07/12 12:00:18;;;;;;;2.22;2.10;;;24.40;72.70;;;;;;5068058;28;43460;-72
2023/07/12 12:02:50;;;;;;;2.33;2.13;;;24.40;72.70;;;;;;5082543;28;43984;-71
2023/07/12 12:05:21;;;;;;;3.72;2.70;;;24.50;72.40;;;;;;5083022;28;43583;-70
2023/07/12 12:07:49;;;;;;;2.60;2.40;;;24.60;72.10;;;;;;5075479;28;43557;-70
2023/07/12 12:10:21;;;;;;;3.05;2.33;;;24.70;71.60;;;;;;5062082;28;43948;-70
2023/07/12 12:12:49;;;;;;;3.80;2.70;;;24.70;71.50;;;;;;5084996;28;43439;-71
2023/07/12 12:15:22;;;;;;;3.05;2.72;;;24.70;71.50;;;;;;5080973;28;44008;-71
2023/07/12 12:17:51;;;;;;;4.63;2.80;;;24.60;72.40;;;;;;5079573;28;43376;-70
2023/07/12 12:20:21;;;;;;;2.63;2.45;;;24.60;72.00;;;;;;5064667;28;43395;-70
2023/07/12 12:22:52;;;;;;;2.50;2.30;;;24.60;71.90;;;;;;5071404;28;43568;-70
2023/07/12 12:25:22;;;;;;;3.15;2.50;;;24.50;71.90;;;;;;5070346;28;43609;-70
2023/07/12 12:27:50;;;;;;;3.75;2.95;;;24.50;72.00;;;;;;5078158;28;43459;-72
2023/07/12 12:30:22;;;;;;;2.97;2.47;;;24.40;72.30;;;;;;5086545;28;43384;-70
2023/07/12 12:32:57;;;;;;;3.50;2.70;;;24.40;72.40;;;;;;5072950;28;43407;-71
2023/07/12 12:35:25;;;;;;;2.60;2.40;;;24.40;72.30;;;;;;5076131;28;43880;-70
2023/07/12 12:37:55;;;;;;;2.97;2.78;;;24.40;72.40;;;;;;5061088;28;44906;-70
2023/07/12 12:40:23;;;;;;;2.63;2.50;;;24.40;72.70;;;;;;5076330;28;43388;-70
2023/07/12 12:42:54;;;;;;;2.42;2.22;;;24.40;72.50;;;;;;5075947;28;43547;-70
2023/07/12 12:45:23;;;;;;;3.33;2.70;;;24.50;72.40;;;;;;5084541;28;43662;-70
2023/07/12 12:47:52;;;;;;;2.87;2.60;;;24.60;71.90;;;;;;5066289;28;44765;-70
2023/07/12 12:50:22;;;;;;;2.50;2.40;;;24.70;71.60;;;;;;5065680;28;43454;-70
2023/07/12 12:52:56;;;;;;;2.70;2.50;;;24.70;71.40;;;;;;5068973;28;43405;-70
2023/07/12 12:55:27;;;;;;;2.53;2.33;;;24.70;71.60;;;;;;5084792;28;43974;-70
2023/07/12 12:58:05;;;;;;;2.38;2.28;;;24.70;71.90;;;;;;5086152;28;43397;-70
2023/07/12 13:00:48;;;;;;;2.40;2.30;;;24.60;71.90;;;;;;5083700;28;43407;-71